Terminal Aerodrome Forecast
Issued by NWS Quad Cities IA IL

Home | Current Version | Previous Version | Text Only | Print | Product List | Glossary On
Versions: 1 2 3 4 5 6 7 8 9 10 11 12 13 14 15 16 17 18 19 20
000
FTUS43 KDVN 282300
TAFMLI
TAF
KMLI 282328Z 2900/2924 14012KT P6SM BKN200
     FM290800 17012KT 5SM BR OVC015
     FM291000 30015G22KT 5SM BR OVC010
     FM291400 32020G28KT P6SM OVC020=

USA.gov is the U.S. government's official web portal to all federal, state and local government web resources and services.